Time;durP1;ratioP1;P1;durP2;ratioP2;P2;SDS_P1;SDS_P2;PMS_P1;PMS_P2;Temp;Humidity;BMP_temperature;BMP_pressure;BME280_temperature;BME280_humidity;BME280_pressure;Samples;Min_cycle;Max_cycle;Signal;HPM_P1;HPM_P2
2021/12/21 00:00:16;;;;;;;44.60;19.75;;;2.70;99.90;;;;;;5030373;28;20100;-59
2021/12/21 00:02:45;;;;;;;55.10;20.88;;;2.60;99.90;;;;;;5030260;28;20037;-59
2021/12/21 00:05:17;;;;;;;52.00;20.48;;;2.50;99.90;;;;;;5030724;28;20108;-59
2021/12/21 00:07:44;;;;;;;53.10;21.33;;;2.40;99.90;;;;;;5030746;28;20048;-59
2021/12/21 00:10:11;;;;;;;50.97;21.48;;;2.40;99.90;;;;;;5030099;28;20053;-58
2021/12/21 00:12:39;;;;;;;49.75;21.38;;;2.40;99.90;;;;;;5030147;28;20109;-58
2021/12/21 00:15:19;;;;;;;55.20;21.30;;;2.40;99.90;;;;;;5030108;28;20024;-58
2021/12/21 00:17:54;;;;;;;54.20;21.13;;;2.30;99.90;;;;;;5030370;28;20024;-58
2021/12/21 00:25:23;;;;;;;56.00;22.65;;;2.20;99.90;;;;;;5030032;28;20049;-58
2021/12/21 00:27:52;;;;;;;53.25;20.67;;;2.20;99.90;;;;;;5029575;28;20445;-58
2021/12/21 00:30:18;;;;;;;57.40;22.63;;;2.30;99.90;;;;;;5028728;28;20091;-59
2021/12/21 00:32:44;;;;;;;53.88;22.55;;;2.30;99.90;;;;;;5033362;28;20415;-59
2021/12/21 00:35:10;;;;;;;58.58;23.52;;;2.20;99.90;;;;;;5036591;28;20171;-59
2021/12/21 00:37:40;;;;;;;55.75;21.17;;;2.20;99.90;;;;;;5036749;28;20034;-58
2021/12/21 00:40:06;;;;;;;51.00;21.52;;;2.20;99.90;;;;;;5036618;28;20383;-58
2021/12/21 00:42:32;;;;;;;52.72;21.83;;;2.30;99.90;;;;;;5036471;28;20583;-59
2021/12/21 00:44:57;;;;;;;53.97;21.88;;;2.30;99.90;;;;;;5037054;28;20049;-58
2021/12/21 00:47:23;;;;;;;66.25;23.30;;;2.20;99.90;;;;;;5036306;28;20379;-59
2021/12/21 00:49:58;;;;;;;50.38;21.67;;;2.20;99.90;;;;;;5036666;28;20025;-58
2021/12/21 00:52:24;;;;;;;54.13;21.77;;;2.20;99.90;;;;;;5036654;28;20072;-58
2021/12/21 00:54:50;;;;;;;54.28;23.63;;;2.10;99.90;;;;;;5037001;28;20017;-59
2021/12/21 00:57:16;;;;;;;61.63;23.73;;;2.10;99.90;;;;;;5051479;28;20029;-59
2021/12/21 00:59:41;;;;;;;64.93;24.38;;;2.00;99.90;;;;;;5036240;28;20037;-59
2021/12/21 01:02:07;;;;;;;50.63;21.73;;;2.10;99.90;;;;;;5036503;28;20021;-58
2021/12/21 01:04:38;;;;;;;62.50;23.38;;;2.00;99.90;;;;;;5052503;28;20025;-58
2021/12/21 01:12:18;;;;;;;53.10;23.13;;;1.90;99.90;;;;;;5036494;28;20029;-59
2021/12/21 01:17:18;;;;;;;53.10;23.90;;;1.70;99.90;;;;;;5035213;28;20104;-58
2021/12/21 01:19:58;;;;;;;60.55;22.67;;;1.70;99.90;;;;;;5051445;28;20061;-58
2021/12/21 01:23:05;;;;;;;60.25;24.35;;;1.80;99.90;;;;;;5035941;28;20028;-58
2021/12/21 01:25:27;;;;;;;52.22;22.40;;;1.80;99.90;;;;;;5038003;28;20430;-58
2021/12/21 01:28:08;;;;;;;60.33;24.88;;;1.70;99.90;;;;;;5035887;28;20022;-59
2021/12/21 01:35:51;;;;;;;61.53;24.50;;;1.60;99.90;;;;;;5036075;28;20144;-58
2021/12/21 01:38:27;;;;;;;69.65;26.35;;;1.60;99.90;;;;;;5036105;28;20017;-59
2021/12/21 01:41:10;;;;;;;61.40;26.85;;;1.70;99.90;;;;;;5035855;28;20037;-59
2021/12/21 01:43:43;;;;;;;59.38;24.70;;;1.70;99.90;;;;;;5034870;28;20391;-59
2021/12/21 01:51:37;;;;;;;57.63;24.52;;;1.40;99.90;;;;;;5032718;28;20037;-58
2021/12/21 01:54:03;;;;;;;61.40;24.77;;;1.40;99.90;;;;;;5032804;28;20025;-59
2021/12/21 01:56:29;;;;;;;62.60;26.20;;;1.40;99.90;;;;;;5032192;28;20021;-59
2021/12/21 01:58:55;;;;;;;62.75;25.73;;;1.40;99.90;;;;;;5032829;28;20022;-58
2021/12/21 02:01:23;;;;;;;58.72;25.77;;;1.30;99.90;;;;;;5032567;28;20057;-58
2021/12/21 02:03:49;;;;;;;54.90;24.90;;;1.30;99.90;;;;;;5032537;28;20060;-58
2021/12/21 02:06:21;;;;;;;62.88;24.25;;;1.20;99.90;;;;;;5032464;28;20608;-59
2021/12/21 02:08:47;;;;;;;65.10;26.55;;;1.30;99.90;;;;;;5032682;28;20029;-58
2021/12/21 02:11:13;;;;;;;57.22;24.60;;;1.30;99.90;;;;;;5032325;28;20033;-58
2021/12/21 02:13:44;;;;;;;62.33;25.77;;;1.30;99.90;;;;;;5032378;28;20033;-58
2021/12/21 02:16:10;;;;;;;71.13;28.38;;;1.20;99.90;;;;;;5032302;28;20032;-58
2021/12/21 02:21:50;;;;;;;64.82;25.60;;;1.10;99.90;;;;;;5032169;28;20032;-58
2021/12/21 02:23:58;;;;;;;66.70;26.38;;;1.00;99.90;;;;;;5037071;28;20041;-58
2021/12/21 02:29:16;;;;;;;67.55;27.02;;;1.00;99.90;;;;;;5032156;28;20025;-58
2021/12/21 02:31:47;;;;;;;69.68;28.73;;;1.00;99.90;;;;;;5032199;28;20666;-58
2021/12/21 02:34:15;;;;;;;59.25;21.88;;;1.20;99.90;;;;;;5032442;28;20426;-58
2021/12/21 02:36:42;;;;;;;58.08;27.10;;;1.20;99.90;;;;;;5032151;28;20042;-58
2021/12/21 02:39:08;;;;;;;64.10;27.35;;;1.10;99.90;;;;;;5031874;28;20041;-58
2021/12/21 02:41:35;;;;;;;64.05;26.70;;;1.00;99.90;;;;;;5031649;28;20034;-58
2021/12/21 02:44:01;;;;;;;64.45;25.45;;;0.90;99.90;;;;;;5047141;28;20033;-58
2021/12/21 02:46:27;;;;;;;59.30;26.70;;;0.90;99.90;;;;;;5031815;28;20549;-58
2021/12/21 02:48:53;;;;;;;71.55;26.55;;;0.90;99.90;;;;;;5031658;28;20036;-58
2021/12/21 02:51:19;;;;;;;63.72;27.15;;;0.90;99.90;;;;;;5031695;28;20028;-58
2021/12/21 02:53:44;;;;;;;56.90;27.42;;;0.90;99.90;;;;;;5032463;28;20101;-58
2021/12/21 02:56:11;;;;;;;59.13;26.65;;;0.90;99.90;;;;;;5030671;28;20029;-58
2021/12/21 02:58:37;;;;;;;57.08;26.85;;;0.80;99.90;;;;;;5031866;28;20036;-58
2021/12/21 03:01:06;;;;;;;70.55;27.73;;;0.80;99.90;;;;;;5031600;28;20234;-58
2021/12/21 03:03:32;;;;;;;66.35;28.40;;;0.80;99.90;;;;;;5031449;28;20658;-58
2021/12/21 03:05:58;;;;;;;61.78;27.15;;;0.80;99.90;;;;;;5031542;28;20103;-58
2021/12/21 03:08:44;;;;;;;69.88;27.77;;;0.90;99.90;;;;;;5031757;28;20104;-58
2021/12/21 03:11:25;;;;;;;73.40;28.58;;;0.90;99.90;;;;;;5031298;28;20054;-58
2021/12/21 03:13:55;;;;;;;71.00;29.48;;;0.90;99.90;;;;;;5031263;28;20389;-58
2021/12/21 03:16:21;;;;;;;63.17;27.52;;;1.00;99.90;;;;;;5031103;28;20529;-58
2021/12/21 03:18:47;;;;;;;59.53;26.15;;;1.00;99.90;;;;;;5031465;28;20088;-58
2021/12/21 03:21:12;;;;;;;67.72;28.60;;;0.90;99.90;;;;;;5030898;28;20426;-58
2021/12/21 03:23:40;;;;;;;64.72;27.52;;;0.80;99.90;;;;;;5031314;28;20108;-58
2021/12/21 03:26:06;;;;;;;61.88;26.45;;;0.70;99.90;;;;;;5030847;28;20415;-58
2021/12/21 03:28:32;;;;;;;63.42;27.77;;;0.60;99.90;;;;;;5030524;28;20225;-59
2021/12/21 03:30:57;;;;;;;69.93;26.92;;;0.60;99.90;;;;;;5031118;28;20038;-58
2021/12/21 03:33:23;;;;;;;67.72;28.85;;;0.60;99.90;;;;;;5031042;28;20390;-58
2021/12/21 03:35:49;;;;;;;57.58;27.17;;;0.60;99.90;;;;;;5030786;28;20399;-58
2021/12/21 03:38:16;;;;;;;60.30;26.45;;;0.60;99.90;;;;;;5030852;28;20037;-58
2021/12/21 03:40:42;;;;;;;62.25;26.50;;;0.60;99.90;;;;;;5045999;28;20288;-58
2021/12/21 03:43:10;;;;;;;61.90;26.08;;;0.50;99.90;;;;;;5030955;28;20025;-58
2021/12/21 03:45:40;;;;;;;66.50;28.83;;;0.50;99.90;;;;;;5030769;28;20026;-58
2021/12/21 03:48:06;;;;;;;58.00;26.70;;;0.60;99.90;;;;;;5030655;28;20017;-58
2021/12/21 03:50:32;;;;;;;67.05;28.45;;;0.60;99.90;;;;;;5030631;28;20494;-58
2021/12/21 03:52:57;;;;;;;64.95;27.02;;;0.50;99.90;;;;;;5030375;28;20021;-58
2021/12/21 03:55:23;;;;;;;62.95;25.50;;;0.50;99.90;;;;;;5030987;28;20025;-58
2021/12/21 03:57:48;;;;;;;64.85;26.23;;;0.40;99.90;;;;;;5046035;28;20112;-58
2021/12/21 04:00:15;;;;;;;62.95;27.92;;;0.30;99.90;;;;;;5030373;28;20076;-58
2021/12/21 04:02:41;;;;;;;62.85;27.80;;;0.30;99.90;;;;;;5030642;28;20034;-58
2021/12/21 04:05:08;;;;;;;70.30;29.67;;;0.40;99.90;;;;;;5030815;28;20026;-58
2021/12/21 04:07:33;;;;;;;64.57;27.30;;;0.40;99.90;;;;;;5030193;28;20029;-58
2021/12/21 04:09:59;;;;;;;70.78;28.23;;;0.40;99.90;;;;;;5030243;28;20032;-58
2021/12/21 04:12:25;;;;;;;70.63;29.33;;;0.40;99.90;;;;;;5029851;28;20055;-58
2021/12/21 04:14:52;;;;;;;58.60;27.20;;;0.50;99.90;;;;;;5030063;28;20026;-58
2021/12/21 04:17:22;;;;;;;67.93;27.52;;;0.40;99.90;;;;;;5030306;28;20588;-58
2021/12/21 04:19:49;;;;;;;70.72;28.73;;;0.30;99.90;;;;;;5030362;28;20025;-58
2021/12/21 04:22:18;;;;;;;62.88;27.15;;;0.30;99.90;;;;;;5029868;28;20426;-58
2021/12/21 04:24:44;;;;;;;68.53;27.90;;;0.40;99.90;;;;;;5030529;28;20022;-58
2021/12/21 04:27:10;;;;;;;62.17;27.08;;;0.40;99.90;;;;;;5030154;28;20083;-58
2021/12/21 04:29:35;;;;;;;54.40;26.80;;;0.40;99.90;;;;;;5045346;28;20033;-58
2021/12/21 04:32:02;;;;;;;66.45;27.48;;;0.30;99.90;;;;;;5030023;28;20048;-58
2021/12/21 04:34:27;;;;;;;66.28;25.85;;;0.30;99.90;;;;;;5030126;28;20022;-58
2021/12/21 04:36:53;;;;;;;58.25;25.20;;;0.30;99.90;;;;;;5030016;28;20364;-58
2021/12/21 04:39:43;;;;;;;58.25;26.92;;;0.30;99.90;;;;;;5029830;28;20024;-58
2021/12/21 04:42:07;;;;;;;66.72;26.88;;;0.30;99.90;;;;;;5030219;28;20029;-58
2021/12/21 04:44:33;;;;;;;65.60;27.45;;;0.30;99.90;;;;;;5030232;28;20490;-58
2021/12/21 04:46:59;;;;;;;66.88;28.05;;;0.40;99.90;;;;;;5029875;28;20387;-58
2021/12/21 04:49:26;;;;;;;69.13;27.83;;;0.40;99.90;;;;;;5029924;28;20033;-58
2021/12/21 04:51:51;;;;;;;56.45;28.10;;;0.40;99.90;;;;;;5029707;28;20032;-58
2021/12/21 04:54:17;;;;;;;62.47;27.77;;;0.40;99.90;;;;;;5030071;28;20104;-58
2021/12/21 04:56:43;;;;;;;63.00;27.88;;;0.40;99.90;;;;;;5029615;28;20102;-58
2021/12/21 04:59:08;;;;;;;72.50;28.73;;;0.40;99.90;;;;;;5029449;28;20026;-58
2021/12/21 05:01:34;;;;;;;64.50;27.98;;;0.40;99.90;;;;;;5029718;28;20069;-58
2021/12/21 05:04:00;;;;;;;58.67;27.38;;;0.40;99.90;;;;;;5029618;28;20068;-58
2021/12/21 05:06:26;;;;;;;59.42;26.67;;;0.40;99.90;;;;;;5029809;28;20072;-58
2021/12/21 05:09:04;;;;;;;70.78;28.77;;;0.40;99.90;;;;;;5029822;28;20108;-58
2021/12/21 05:11:35;;;;;;;61.00;26.35;;;0.50;99.90;;;;;;5029852;28;20489;-58
2021/12/21 05:14:02;;;;;;;57.97;26.65;;;0.40;99.90;;;;;;5029909;28;20030;-58
2021/12/21 05:16:27;;;;;;;52.90;24.67;;;0.30;99.90;;;;;;5029997;28;20018;-58
2021/12/21 05:18:53;;;;;;;55.70;25.35;;;0.20;99.90;;;;;;5029847;28;20426;-58
2021/12/21 05:21:18;;;;;;;59.05;26.90;;;0.20;99.90;;;;;;5033239;28;20429;-58
2021/12/21 05:23:44;;;;;;;67.65;27.52;;;0.20;99.90;;;;;;5033479;28;20025;-58
2021/12/21 05:26:10;;;;;;;66.85;25.88;;;0.20;99.90;;;;;;5033180;28;20102;-58
2021/12/21 05:28:35;;;;;;;58.75;26.70;;;0.20;99.90;;;;;;5032952;28;20526;-58
2021/12/21 05:31:01;;;;;;;68.72;27.80;;;0.10;99.90;;;;;;5032823;28;20032;-58
2021/12/21 05:33:28;;;;;;;67.45;30.35;;;0.10;99.90;;;;;;5033066;28;20518;-58
2021/12/21 05:35:55;;;;;;;59.88;29.17;;;0.10;99.90;;;;;;5048332;28;20404;-58
2021/12/21 05:38:29;;;;;;;57.58;27.85;;;0.20;99.90;;;;;;5032920;28;20025;-58
2021/12/21 05:40:54;;;;;;;66.72;29.98;;;0.20;99.90;;;;;;5033022;28;20032;-58
2021/12/21 05:43:21;;;;;;;64.40;27.83;;;0.20;99.90;;;;;;5033096;28;20422;-58
2021/12/21 05:45:47;;;;;;;60.75;29.70;;;0.20;99.90;;;;;;5033420;28;20026;-58
2021/12/21 05:48:13;;;;;;;62.95;31.63;;;0.20;99.90;;;;;;5032911;28;20536;-58
2021/12/21 05:50:38;;;;;;;66.25;29.73;;;0.30;99.90;;;;;;5032261;28;20033;-58
2021/12/21 05:53:04;;;;;;;68.72;28.80;;;0.10;99.90;;;;;;5032931;28;20093;-58
2021/12/21 05:55:30;;;;;;;53.35;27.33;;;0.10;99.90;;;;;;5032517;28;20032;-58
2021/12/21 05:57:56;;;;;;;59.22;26.13;;;0.00;99.90;;;;;;5032679;28;20092;-58
2021/12/21 06:00:28;;;;;;;64.88;28.42;;;-0.10;99.90;;;;;;5032279;28;20580;-58
2021/12/21 06:02:54;;;;;;;59.08;26.98;;;0.00;99.90;;;;;;5047650;28;20025;-58
2021/12/21 06:05:20;;;;;;;69.45;29.38;;;0.10;99.90;;;;;;5032553;28;20040;-58
2021/12/21 06:07:49;;;;;;;65.10;26.95;;;0.00;99.90;;;;;;5032252;28;20057;-58
2021/12/21 06:10:21;;;;;;;62.90;27.15;;;-0.10;99.90;;;;;;5032175;28;20029;-58
2021/12/21 06:15:55;;;;;;;64.30;28.55;;;0.00;99.90;;;;;;5032254;28;20017;-58
2021/12/21 06:26:27;;;;;;;54.15;26.60;;;-0.30;99.90;;;;;;5031983;28;20115;-58
2021/12/21 06:28:53;;;;;;;56.78;26.08;;;-0.30;99.90;;;;;;5032805;28;20482;-58
2021/12/21 06:31:19;;;;;;;61.15;26.70;;;-0.30;99.90;;;;;;5031546;28;20029;-58
2021/12/21 06:33:45;;;;;;;56.92;24.92;;;-0.30;99.90;;;;;;5032153;28;20056;-58
2021/12/21 06:36:11;;;;;;;62.85;26.17;;;-0.30;99.90;;;;;;5031869;28;20514;-58
2021/12/21 06:38:37;;;;;;;60.90;26.55;;;-0.30;99.90;;;;;;5032167;28;20383;-58
2021/12/21 06:41:03;;;;;;;57.40;26.52;;;-0.30;99.90;;;;;;5032116;28;20025;-58
2021/12/21 06:43:30;;;;;;;55.72;25.17;;;-0.30;99.90;;;;;;5032228;28;20108;-58
2021/12/21 06:46:41;;;;;;;59.65;27.02;;;-0.40;99.90;;;;;;5031716;28;20160;-59
2021/12/21 06:53:57;;;;;;;65.65;27.75;;;-0.30;99.90;;;;;;5032287;28;20104;-58
2021/12/21 06:56:24;;;;;;;61.08;29.60;;;-0.20;99.90;;;;;;5046611;28;20025;-58
2021/12/21 06:58:50;;;;;;;65.15;30.38;;;-0.30;99.90;;;;;;5031491;28;20164;-58
2021/12/21 07:01:17;;;;;;;62.67;29.77;;;-0.20;99.90;;;;;;5031819;28;20036;-58
2021/12/21 07:03:43;;;;;;;77.63;31.02;;;-0.20;99.90;;;;;;5031558;28;20044;-58
2021/12/21 07:06:09;;;;;;;65.85;29.30;;;-0.20;99.90;;;;;;5031326;28;20025;-58
2021/12/21 07:08:46;;;;;;;60.85;28.60;;;-0.20;99.90;;;;;;5031225;28;20025;-58
2021/12/21 07:19:11;;;;;;;67.53;31.00;;;-0.20;99.90;;;;;;5031442;28;20045;-58
2021/12/21 07:21:38;;;;;;;66.20;30.88;;;-0.30;99.90;;;;;;5031080;28;20021;-58
2021/12/21 07:24:04;;;;;;;61.72;29.95;;;-0.30;99.90;;;;;;5030952;28;20029;-58
2021/12/21 07:26:30;;;;;;;54.17;27.33;;;-0.30;99.90;;;;;;5030774;28;20053;-58
2021/12/21 07:28:55;;;;;;;68.47;29.50;;;-0.50;99.90;;;;;;5030596;28;20031;-58
2021/12/21 07:31:21;;;;;;;66.38;28.48;;;-0.40;99.90;;;;;;5031384;28;20029;-58
2021/12/21 07:33:46;;;;;;;58.88;28.05;;;-0.50;99.90;;;;;;5031325;28;20024;-58
2021/12/21 07:36:12;;;;;;;56.88;27.05;;;-0.50;99.90;;;;;;5030599;28;20391;-58
2021/12/21 07:38:38;;;;;;;58.80;28.02;;;-0.50;99.90;;;;;;5030407;28;20018;-58
2021/12/21 07:41:04;;;;;;;63.25;26.35;;;-0.50;99.90;;;;;;5030521;28;20026;-58
2021/12/21 07:43:29;;;;;;;56.08;26.92;;;-0.60;99.90;;;;;;5030136;28;20037;-58
2021/12/21 07:45:56;;;;;;;66.80;26.65;;;-0.70;99.90;;;;;;5045706;28;20039;-58
2021/12/21 07:48:21;;;;;;;57.10;26.42;;;-0.70;99.90;;;;;;5030534;28;20033;-58
2021/12/21 07:50:48;;;;;;;58.70;25.95;;;-0.70;99.90;;;;;;5030352;28;20021;-58
2021/12/21 07:53:15;;;;;;;60.75;26.30;;;-0.80;99.90;;;;;;5030710;28;20025;-58
2021/12/21 07:55:40;;;;;;;64.40;27.75;;;-0.70;99.90;;;;;;5030321;28;20033;-58
2021/12/21 07:58:06;;;;;;;62.03;27.80;;;-0.40;99.90;;;;;;5030552;28;20025;-58
2021/12/21 08:00:32;;;;;;;69.35;30.13;;;-0.30;99.90;;;;;;5030265;28;20029;-58
2021/12/21 08:02:58;;;;;;;72.88;29.45;;;-0.10;99.90;;;;;;5030057;28;20033;-58
2021/12/21 08:05:24;;;;;;;70.93;29.30;;;-0.20;99.90;;;;;;5029481;28;20025;-58
2021/12/21 08:07:55;;;;;;;68.45;30.30;;;-0.30;99.90;;;;;;5029371;28;20463;-58
2021/12/21 08:10:42;;;;;;;67.20;29.95;;;-0.40;99.90;;;;;;5042022;28;20037;-58
2021/12/21 08:13:08;;;;;;;62.05;28.00;;;-0.30;99.90;;;;;;5024205;28;20040;-58
2021/12/21 08:15:33;;;;;;;62.40;27.40;;;-0.20;99.90;;;;;;5012720;28;20109;-58
2021/12/21 08:17:59;;;;;;;54.00;25.67;;;-0.30;99.90;;;;;;5026508;28;20026;-58
2021/12/21 08:20:27;;;;;;;59.92;26.67;;;-0.30;99.90;;;;;;5026631;28;20030;-58
2021/12/21 08:22:54;;;;;;;50.33;24.67;;;-0.30;99.90;;;;;;5023050;28;20104;-58
2021/12/21 08:25:24;;;;;;;58.75;26.60;;;-0.30;99.90;;;;;;5024252;28;20037;-58
2021/12/21 08:27:57;;;;;;;61.53;24.83;;;-0.10;99.90;;;;;;5027606;28;20028;-58
2021/12/21 08:30:24;;;;;;;53.60;25.30;;;0.00;99.90;;;;;;5024981;28;20038;-58
2021/12/21 08:32:50;;;;;;;55.08;24.95;;;0.20;99.90;;;;;;5025897;28;20464;-58
2021/12/21 08:35:15;;;;;;;56.20;26.80;;;0.20;99.90;;;;;;5027119;28;20032;-58
2021/12/21 08:37:48;;;;;;;63.35;29.10;;;0.30;99.90;;;;;;5027289;28;20025;-58
2021/12/21 08:40:14;;;;;;;53.08;25.58;;;0.40;99.90;;;;;;5028820;28;20021;-58
2021/12/21 08:42:40;;;;;;;55.20;25.88;;;0.60;99.90;;;;;;5027223;28;20030;-58
2021/12/21 08:45:06;;;;;;;52.03;23.98;;;0.90;99.90;;;;;;5026534;28;20033;-58
2021/12/21 08:47:36;;;;;;;43.72;21.48;;;1.50;99.90;;;;;;5027368;28;20214;-58
2021/12/21 08:50:04;;;;;;;42.58;19.40;;;2.20;99.90;;;;;;5024717;28;20503;-58
2021/12/21 08:52:32;;;;;;;40.42;18.20;;;3.00;99.90;;;;;;5027771;28;20071;-58
2021/12/21 08:54:57;;;;;;;34.55;18.02;;;3.70;99.90;;;;;;5028278;28;20030;-59
2021/12/21 08:57:23;;;;;;;28.67;17.42;;;4.20;99.90;;;;;;5032818;28;20040;-59
2021/12/21 08:59:49;;;;;;;37.50;16.80;;;4.40;99.90;;;;;;5033367;28;20108;-59
2021/12/21 09:02:15;;;;;;;37.13;18.40;;;5.10;99.90;;;;;;5015038;28;20037;-59
2021/12/21 09:04:41;;;;;;;34.50;18.38;;;5.40;99.90;;;;;;5013943;28;20038;-59
2021/12/21 09:07:07;;;;;;;33.55;18.35;;;5.30;99.90;;;;;;5022434;28;20116;-59
2021/12/21 09:09:33;;;;;;;33.65;17.25;;;5.00;99.90;;;;;;5013795;28;20498;-59
2021/12/21 09:11:58;;;;;;;31.48;17.90;;;5.60;99.90;;;;;;5015433;28;20076;-59
2021/12/21 09:14:27;;;;;;;32.25;16.48;;;6.00;99.90;;;;;;5013396;28;20014;-59
2021/12/21 09:16:53;;;;;;;31.98;17.33;;;5.80;99.90;;;;;;5029432;28;20390;-59
2021/12/21 09:19:18;;;;;;;38.47;18.00;;;5.80;99.90;;;;;;5032948;28;20022;-59
2021/12/21 09:21:44;;;;;;;31.40;16.50;;;6.00;99.90;;;;;;5032459;28;20036;-59
2021/12/21 09:24:10;;;;;;;30.23;16.45;;;6.30;99.90;;;;;;5033133;28;20506;-59
2021/12/21 09:26:36;;;;;;;29.85;15.02;;;6.80;99.90;;;;;;5032028;28;20041;-59
2021/12/21 09:29:02;;;;;;;30.88;15.50;;;7.70;99.90;;;;;;5032453;28;20033;-59
2021/12/21 09:31:28;;;;;;;29.33;14.88;;;7.70;99.90;;;;;;5026312;28;20073;-59
2021/12/21 09:33:54;;;;;;;29.88;15.00;;;7.60;99.90;;;;;;5018094;28;20069;-59
2021/12/21 09:36:20;;;;;;;30.98;14.55;;;7.70;99.90;;;;;;5013415;28;20025;-59
2021/12/21 09:38:46;;;;;;;26.25;14.80;;;7.70;99.90;;;;;;5013926;28;20363;-59
2021/12/21 09:41:12;;;;;;;26.75;14.48;;;7.90;99.90;;;;;;5018051;28;20032;-59
2021/12/21 09:43:40;;;;;;;26.15;13.55;;;8.00;99.90;;;;;;5031446;28;20087;-59
2021/12/21 09:46:10;;;;;;;26.75;14.73;;;8.40;99.90;;;;;;5014515;28;20030;-59
2021/12/21 09:48:37;;;;;;;25.17;13.75;;;8.70;99.90;;;;;;5012541;28;20099;-59
2021/12/21 09:51:03;;;;;;;27.63;13.77;;;8.40;99.90;;;;;;5029977;28;20021;-59
2021/12/21 09:53:31;;;;;;;26.70;14.05;;;8.50;99.90;;;;;;5032494;28;20068;-59
2021/12/21 09:55:56;;;;;;;25.23;13.95;;;9.20;99.90;;;;;;5015699;28;20474;-59
2021/12/21 09:58:22;;;;;;;27.00;14.18;;;9.40;99.90;;;;;;5013720;28;20026;-59
2021/12/21 10:00:48;;;;;;;24.90;14.00;;;9.50;99.90;;;;;;5020464;28;20084;-59
2021/12/21 10:03:15;;;;;;;28.75;14.95;;;9.70;99.90;;;;;;5032490;28;20080;-59
2021/12/21 10:05:43;;;;;;;27.42;14.20;;;10.20;99.90;;;;;;5029785;28;20032;-59
2021/12/21 10:08:11;;;;;;;27.73;14.20;;;10.00;99.90;;;;;;5017894;28;20045;-59
2021/12/21 10:10:46;;;;;;;23.58;13.10;;;10.20;99.90;;;;;;5022182;28;20031;-59
2021/12/21 10:13:21;;;;;;;26.17;12.93;;;10.20;99.90;;;;;;5017058;28;20025;-59
2021/12/21 10:15:52;;;;;;;23.95;12.57;;;10.20;99.90;;;;;;5018266;28;20033;-59
2021/12/21 10:18:27;;;;;;;26.23;13.00;;;10.20;99.90;;;;;;5013975;28;20033;-59
2021/12/21 10:20:55;;;;;;;24.52;13.25;;;10.00;99.90;;;;;;5029827;28;20029;-59
2021/12/21 10:23:34;;;;;;;21.38;12.15;;;9.60;99.90;;;;;;5029516;28;20036;-59
2021/12/21 10:26:04;;;;;;;23.13;13.07;;;9.30;99.90;;;;;;5019945;28;20168;-59
2021/12/21 10:28:33;;;;;;;53.83;29.73;;;10.10;99.90;;;;;;5017206;28;20135;-59
2021/12/21 10:31:01;;;;;;;61.05;28.80;;;10.40;99.90;;;;;;5023132;28;20419;-59
2021/12/21 10:33:27;;;;;;;57.60;27.63;;;10.20;99.90;;;;;;5016435;28;20372;-59
2021/12/21 10:35:58;;;;;;;41.35;22.67;;;10.00;99.90;;;;;;5020277;28;20037;-59
2021/12/21 10:38:28;;;;;;;26.23;15.75;;;10.10;99.90;;;;;;5030670;28;20026;-59
2021/12/21 10:40:54;;;;;;;23.23;13.45;;;10.40;99.90;;;;;;5042896;28;20022;-59
2021/12/21 10:43:20;;;;;;;24.17;14.98;;;10.20;99.90;;;;;;5029613;28;20451;-59
2021/12/21 10:45:47;;;;;;;27.33;15.40;;;9.90;99.90;;;;;;5015977;28;20026;-59
2021/12/21 10:48:16;;;;;;;24.35;14.50;;;9.20;99.90;;;;;;5014480;28;20029;-59
2021/12/21 10:50:47;;;;;;;25.00;14.77;;;9.20;99.90;;;;;;5020181;28;20041;-59
2021/12/21 10:53:23;;;;;;;24.90;14.70;;;10.10;99.90;;;;;;5013723;28;20092;-59
2021/12/21 10:56:04;;;;;;;22.05;14.13;;;10.40;99.90;;;;;;5017785;28;20057;-59
2021/12/21 10:58:30;;;;;;;24.23;14.32;;;10.30;99.90;;;;;;5017047;28;20364;-59
2021/12/21 11:01:03;;;;;;;26.00;13.63;;;10.30;99.90;;;;;;5014500;28;20467;-59
2021/12/21 11:03:37;;;;;;;28.58;12.77;;;11.10;99.90;;;;;;5010945;28;20040;-59
2021/12/21 11:06:18;;;;;;;24.65;13.05;;;12.00;99.70;;;;;;5024623;28;20074;-59
2021/12/21 11:08:46;;;;;;;25.83;12.95;;;12.20;98.80;;;;;;5023830;28;20442;-59
2021/12/21 11:11:27;;;;;;;33.05;13.48;;;11.90;98.60;;;;;;5029287;28;20060;-59
2021/12/21 11:17:16;;;;;;;27.65;12.32;;;12.80;96.00;;;;;;5010018;28;20036;-59
2021/12/21 11:19:42;;;;;;;31.35;12.48;;;12.20;96.40;;;;;;5016676;28;20032;-59
2021/12/21 11:22:09;;;;;;;20.17;12.80;;;12.70;95.90;;;;;;5017268;28;20470;-59
2021/12/21 11:24:39;;;;;;;26.05;12.07;;;13.30;94.40;;;;;;5030900;28;20036;-60
2021/12/21 11:27:05;;;;;;;48.30;13.30;;;13.70;92.70;;;;;;5030808;28;20037;-59
2021/12/21 11:29:34;;;;;;;57.22;12.73;;;13.10;93.20;;;;;;5026413;28;20128;-59
2021/12/21 11:32:02;;;;;;;22.98;12.70;;;12.60;94.20;;;;;;5015742;28;20557;-60
2021/12/21 11:34:33;;;;;;;21.35;13.32;;;13.30;94.20;;;;;;5028285;28;20030;-60
2021/12/21 11:39:43;;;;;;;30.00;15.77;;;13.60;90.80;;;;;;5030172;28;20060;-59
2021/12/21 11:42:17;;;;;;;42.42;22.17;;;12.70;91.40;;;;;;5049448;28;20030;-59
2021/12/21 11:44:55;;;;;;;25.27;14.80;;;11.60;94.60;;;;;;5029890;28;20021;-60
2021/12/21 11:47:44;;;;;;;31.58;16.63;;;11.40;94.80;;;;;;5054769;28;20030;-59
2021/12/21 11:50:11;;;;;;;23.38;14.52;;;11.70;94.30;;;;;;5010234;28;20049;-59
2021/12/21 11:52:46;;;;;;;34.40;19.20;;;12.40;93.40;;;;;;5010710;28;20352;-59
2021/12/21 11:55:13;;;;;;;26.67;13.73;;;12.40;93.70;;;;;;5010134;28;20053;-59
2021/12/21 11:57:42;;;;;;;53.13;15.07;;;13.00;92.20;;;;;;5011572;28;20021;-59
2021/12/21 12:00:19;;;;;;;22.63;12.60;;;13.10;91.80;;;;;;5011470;28;20022;-59
2021/12/21 12:02:46;;;;;;;29.95;12.70;;;12.90;91.70;;;;;;5011680;28;20018;-60
2021/12/21 12:05:32;;;;;;;21.08;11.95;;;13.10;91.50;;;;;;5010149;28;20026;-60
2021/12/21 12:07:59;;;;;;;62.20;13.82;;;13.70;90.90;;;;;;5011729;28;20033;-59
2021/12/21 12:10:26;;;;;;;29.35;12.85;;;13.30;90.70;;;;;;5027787;28;20565;-59
2021/12/21 12:12:51;;;;;;;24.02;11.77;;;13.30;91.30;;;;;;5033995;28;20112;-59
2021/12/21 12:15:17;;;;;;;29.83;11.00;;;14.20;90.40;;;;;;5034298;28;20550;-60
2021/12/21 12:17:51;;;;;;;20.60;11.25;;;14.70;88.20;;;;;;5029003;28;20418;-60
2021/12/21 12:20:25;;;;;;;21.67;10.65;;;15.40;82.90;;;;;;5034309;28;20029;-60
2021/12/21 12:23:03;;;;;;;24.33;13.85;;;14.90;82.30;;;;;;5028050;28;20044;-60
2021/12/21 12:25:29;;;;;;;21.85;11.38;;;13.90;85.50;;;;;;5025100;28;20049;-60
2021/12/21 12:27:56;;;;;;;19.25;11.25;;;14.10;84.30;;;;;;5033879;28;20112;-59
2021/12/21 12:30:27;;;;;;;19.77;11.13;;;13.90;84.00;;;;;;5034215;28;20530;-59
2021/12/21 12:32:56;;;;;;;23.92;10.52;;;14.60;82.10;;;;;;5028623;28;20017;-59
2021/12/21 12:35:25;;;;;;;47.45;13.68;;;14.20;83.20;;;;;;5048921;28;20029;-60
2021/12/21 12:38:01;;;;;;;32.78;13.18;;;13.90;83.90;;;;;;5048920;28;20536;-59
2021/12/21 12:40:30;;;;;;;28.48;15.25;;;14.30;82.00;;;;;;5065313;28;20024;-59
2021/12/21 12:43:12;;;;;;;53.47;12.77;;;14.60;81.50;;;;;;5049898;28;20025;-59
2021/12/21 12:45:45;;;;;;;51.88;12.50;;;13.80;82.20;;;;;;5049541;28;20021;-59
2021/12/21 12:48:37;;;;;;;21.58;10.82;;;13.80;83.00;;;;;;5049472;28;20017;-59
2021/12/21 12:51:04;;;;;;;40.05;12.07;;;14.30;82.00;;;;;;5048570;28;20044;-59
2021/12/21 12:53:40;;;;;;;20.17;11.63;;;14.90;79.50;;;;;;5050070;28;20095;-59
2021/12/21 12:56:08;;;;;;;29.58;11.68;;;15.80;77.30;;;;;;5049530;28;20032;-59
2021/12/21 12:58:37;;;;;;;19.42;10.07;;;15.70;76.90;;;;;;5064743;28;20386;-59
2021/12/21 13:01:11;;;;;;;19.95;9.82;;;14.90;78.30;;;;;;5049258;28;20025;-59
2021/12/21 13:03:43;;;;;;;19.27;10.75;;;14.60;81.10;;;;;;5050223;28;20067;-59
2021/12/21 13:06:14;;;;;;;53.00;11.88;;;15.20;77.90;;;;;;5049138;28;20026;-59
2021/12/21 13:08:42;;;;;;;88.90;15.53;;;14.60;78.90;;;;;;5049333;28;20104;-59
2021/12/21 13:11:09;;;;;;;21.38;11.57;;;13.20;83.00;;;;;;5064768;28;20067;-59
2021/12/21 13:13:37;;;;;;;25.25;13.38;;;11.80;88.40;;;;;;5049300;28;20439;-58
2021/12/21 13:16:06;;;;;;;31.75;13.80;;;11.00;92.00;;;;;;5049182;28;20087;-58
2021/12/21 13:18:37;;;;;;;29.20;13.02;;;10.50;93.80;;;;;;5049191;28;20044;-58
2021/12/21 13:21:02;;;;;;;22.40;13.40;;;9.10;98.60;;;;;;5047920;28;20037;-58
2021/12/21 13:23:31;;;;;;;29.35;12.82;;;8.20;99.90;;;;;;5049523;28;20025;-58
2021/12/21 13:26:03;;;;;;;33.70;12.82;;;7.50;99.90;;;;;;5048445;28;20044;-58
2021/12/21 13:28:35;;;;;;;36.78;14.00;;;7.30;99.90;;;;;;5050045;28;20508;-58
2021/12/21 13:31:06;;;;;;;25.98;12.70;;;7.20;99.90;;;;;;5049455;28;20037;-58
2021/12/21 13:33:32;;;;;;;29.50;12.95;;;7.40;99.90;;;;;;5049207;28;20028;-58
2021/12/21 13:36:04;;;;;;;25.42;13.30;;;7.90;99.90;;;;;;5049120;28;20033;-58
2021/12/21 13:38:30;;;;;;;29.42;12.23;;;8.00;99.90;;;;;;5048844;28;20086;-58